sensor_id;sensor_type;location;lat;lon;timestamp;pressure;altitude;pressure_sealevel;temperature;humidity
5988;BME280;3021;51.000;6.980;2023-04-09T00:01:10;67132.69;;;7.49;100.00
5988;BME280;3021;51.000;6.980;2023-04-09T00:03:36;67119.00;;;7.39;100.00
5988;BME280;3021;51.000;6.980;2023-04-09T00:06:03;67114.84;;;7.33;100.00
5988;BME280;3021;51.000;6.980;2023-04-09T00:08:28;67102.88;;;7.25;100.00
5988;BME280;3021;51.000;6.980;2023-04-09T00:10:55;67108.50;;;7.28;100.00
5988;BME280;3021;51.000;6.980;2023-04-09T00:13:21;67107.50;;;7.29;100.00
5988;BME280;3021;51.000;6.980;2023-04-09T00:15:46;67106.75;;;7.26;100.00
5988;BME280;3021;51.000;6.980;2023-04-09T00:18:13;67103.28;;;7.23;100.00
5988;BME280;3021;51.000;6.980;2023-04-09T00:20:38;67106.19;;;7.25;100.00
5988;BME280;3021;51.000;6.980;2023-04-09T00:23:04;67099.28;;;7.19;100.00
5988;BME280;3021;51.000;6.980;2023-04-09T00:25:30;67100.00;;;7.22;100.00
5988;BME280;3021;51.000;6.980;2023-04-09T00:27:56;67099.28;;;7.19;100.00
5988;BME280;3021;51.000;6.980;2023-04-09T00:30:21;67092.38;;;7.13;100.00
5988;BME280;3021;51.000;6.980;2023-04-09T00:32:47;67090.03;;;7.11;100.00
5988;BME280;3021;51.000;6.980;2023-04-09T00:35:12;67085.03;;;7.09;100.00
5988;BME280;3021;51.000;6.980;2023-04-09T00:37:38;67081.41;;;7.03;100.00
5988;BME280;3021;51.000;6.980;2023-04-09T00:40:04;67076.81;;;6.99;100.00
5988;BME280;3021;51.000;6.980;2023-04-09T00:42:33;67068.91;;;6.95;100.00
5988;BME280;3021;51.000;6.980;2023-04-09T00:45:00;67067.00;;;6.90;100.00
5988;BME280;3021;51.000;6.980;2023-04-09T00:47:26;67053.91;;;6.81;100.00
5988;BME280;3021;51.000;6.980;2023-04-09T00:49:53;67049.72;;;6.75;100.00
5988;BME280;3021;51.000;6.980;2023-04-09T00:52:18;67045.69;;;6.71;100.00
5988;BME280;3021;51.000;6.980;2023-04-09T00:54:44;67045.69;;;6.71;100.00
5988;BME280;3021;51.000;6.980;2023-04-09T00:57:09;67045.69;;;6.71;100.00
5988;BME280;3021;51.000;6.980;2023-04-09T00:59:37;67039.94;;;6.66;100.00
5988;BME280;3021;51.000;6.980;2023-04-09T01:02:02;67035.31;;;6.62;100.00
5988;BME280;3021;51.000;6.980;2023-04-09T01:04:27;67031.88;;;6.59;100.00
5988;BME280;3021;51.000;6.980;2023-04-09T01:06:58;67027.28;;;6.55;100.00
5988;BME280;3021;51.000;6.980;2023-04-09T01:09:32;67020.38;;;6.49;100.00
5988;BME280;3021;51.000;6.980;2023-04-09T01:15:12;67019.06;;;6.45;100.00
5988;BME280;3021;51.000;6.980;2023-04-09T01:17:43;67001.94;;;6.32;100.00
5988;BME280;3021;51.000;6.980;2023-04-09T01:20:14;66992.56;;;6.21;100.00
5988;BME280;3021;51.000;6.980;2023-04-09T01:28:12;66966.25;;;6.00;100.00
5988;BME280;3021;51.000;6.980;2023-04-09T01:30:43;66955.84;;;5.91;100.00
5988;BME280;3021;51.000;6.980;2023-04-09T01:33:12;66957.84;;;5.88;100.00
5988;BME280;3021;51.000;6.980;2023-04-09T01:35:42;66951.69;;;5.85;100.00
5988;BME280;3021;51.000;6.980;2023-04-09T01:38:10;66948.97;;;5.85;100.00
5988;BME280;3021;51.000;6.980;2023-04-09T01:40:36;66949.38;;;5.83;100.00
5988;BME280;3021;51.000;6.980;2023-04-09T01:43:02;66946.50;;;5.80;100.00
5988;BME280;3021;51.000;6.980;2023-04-09T01:45:29;66943.63;;;5.78;100.00
5988;BME280;3021;51.000;6.980;2023-04-09T01:47:55;66939.75;;;5.77;100.00
5988;BME280;3021;51.000;6.980;2023-04-09T01:50:21;66935.72;;;5.73;100.00
5988;BME280;3021;51.000;6.980;2023-04-09T01:52:47;66944.78;;;5.79;100.00
5988;BME280;3021;51.000;6.980;2023-04-09T01:55:13;66941.63;;;5.81;100.00
5988;BME280;3021;51.000;6.980;2023-04-09T01:57:38;66942.19;;;5.81;100.00
5988;BME280;3021;51.000;6.980;2023-04-09T02:00:05;66942.19;;;5.81;100.00
5988;BME280;3021;51.000;6.980;2023-04-09T02:02:36;66947.81;;;5.84;100.00
5988;BME280;3021;51.000;6.980;2023-04-09T02:05:08;66949.94;;;5.83;100.00
5988;BME280;3021;51.000;6.980;2023-04-09T02:07:41;66952.97;;;5.88;100.00
5988;BME280;3021;51.000;6.980;2023-04-09T02:10:09;66964.53;;;5.99;100.00
5988;BME280;3021;51.000;6.980;2023-04-09T02:12:37;66977.03;;;6.08;100.00
5988;BME280;3021;51.000;6.980;2023-04-09T02:15:05;66986.22;;;6.16;100.00
5988;BME280;3021;51.000;6.980;2023-04-09T02:17:31;66988.09;;;6.20;100.00
5988;BME280;3021;51.000;6.980;2023-04-09T02:19:57;66992.16;;;6.23;100.00
5988;BME280;3021;51.000;6.980;2023-04-09T02:22:22;66995.59;;;6.27;100.00
5988;BME280;3021;51.000;6.980;2023-04-09T02:24:47;66990.59;;;6.25;100.00
5988;BME280;3021;51.000;6.980;2023-04-09T02:27:13;66989.84;;;6.21;100.00
5988;BME280;3021;51.000;6.980;2023-04-09T02:29:39;66981.78;;;6.14;100.00
5988;BME280;3021;51.000;6.980;2023-04-09T02:32:04;66974.59;;;6.13;100.00
5988;BME280;3021;51.000;6.980;2023-04-09T02:34:30;66977.75;;;6.11;100.00
5988;BME280;3021;51.000;6.980;2023-04-09T02:36:57;66972.16;;;6.08;100.00
5988;BME280;3021;51.000;6.980;2023-04-09T02:39:23;66977.03;;;6.08;100.00
5988;BME280;3021;51.000;6.980;2023-04-09T02:41:48;66973.72;;;6.07;100.00
5988;BME280;3021;51.000;6.980;2023-04-09T02:44:14;66969.69;;;6.03;100.00
5988;BME280;3021;51.000;6.980;2023-04-09T02:46:40;66965.09;;;5.99;100.00
5988;BME280;3021;51.000;6.980;2023-04-09T02:49:05;66965.66;;;6.00;100.00
5988;BME280;3021;51.000;6.980;2023-04-09T02:51:33;66965.09;;;5.99;100.00
5988;BME280;3021;51.000;6.980;2023-04-09T02:53:59;66966.66;;;5.98;100.00
5988;BME280;3021;51.000;6.980;2023-04-09T02:56:24;66957.84;;;5.88;100.00
5988;BME280;3021;51.000;6.980;2023-04-09T02:58:50;66940.47;;;5.80;100.00
5988;BME280;3021;51.000;6.980;2023-04-09T03:01:20;66937.84;;;5.72;100.00
5988;BME280;3021;51.000;6.980;2023-04-09T03:03:46;66927.09;;;5.65;100.00
5988;BME280;3021;51.000;6.980;2023-04-09T03:06:11;66924.06;;;5.60;100.00
5988;BME280;3021;51.000;6.980;2023-04-09T03:08:37;66915.59;;;5.55;100.00
5988;BME280;3021;51.000;6.980;2023-04-09T03:11:02;66914.84;;;5.52;100.00
5988;BME280;3021;51.000;6.980;2023-04-09T03:13:28;66906.97;;;5.47;100.00
5988;BME280;3021;51.000;6.980;2023-04-09T03:15:53;66902.75;;;5.41;100.00
5988;BME280;3021;51.000;6.980;2023-04-09T03:18:19;66895.28;;;5.34;100.00
5988;BME280;3021;51.000;6.980;2023-04-09T03:20:47;66886.09;;;5.26;100.00
5988;BME280;3021;51.000;6.980;2023-04-09T03:23:12;66880.50;;;5.24;100.00
5988;BME280;3021;51.000;6.980;2023-04-09T03:25:38;66871.44;;;5.18;100.00
5988;BME280;3021;51.000;6.980;2023-04-09T03:28:03;66875.72;;;5.17;100.00
5988;BME280;3021;51.000;6.980;2023-04-09T03:30:29;66872.84;;;5.14;100.00
5988;BME280;3021;51.000;6.980;2023-04-09T03:32:54;66867.09;;;5.09;100.00
5988;BME280;3021;51.000;6.980;2023-04-09T03:35:20;66860.94;;;5.06;100.00
5988;BME280;3021;51.000;6.980;2023-04-09T03:37:45;66865.94;;;5.08;100.00
5988;BME280;3021;51.000;6.980;2023-04-09T03:40:11;66860.94;;;5.06;100.00
5988;BME280;3021;51.000;6.980;2023-04-09T03:42:36;66857.50;;;5.03;100.00
5988;BME280;3021;51.000;6.980;2023-04-09T03:45:07;66851.00;;;4.95;100.00
5988;BME280;3021;51.000;6.980;2023-04-09T03:47:33;66843.13;;;4.90;100.00
5988;BME280;3021;51.000;6.980;2023-04-09T03:49:58;66847.81;;;4.87;100.00
5988;BME280;3021;51.000;6.980;2023-04-09T03:52:24;66837.34;;;4.85;100.00
5988;BME280;3021;51.000;6.980;2023-04-09T03:54:49;66833.31;;;4.81;100.00
5988;BME280;3021;51.000;6.980;2023-04-09T03:57:14;66831.03;;;4.79;100.00
5988;BME280;3021;51.000;6.980;2023-04-09T03:59:40;66828.16;;;4.77;100.00
5988;BME280;3021;51.000;6.980;2023-04-09T04:02:05;66824.72;;;4.74;100.00
5988;BME280;3021;51.000;6.980;2023-04-09T04:04:30;66824.72;;;4.74;100.00
5988;BME280;3021;51.000;6.980;2023-04-09T04:06:56;66826.84;;;4.73;100.00
5988;BME280;3021;51.000;6.980;2023-04-09T04:09:21;66820.09;;;4.70;100.00
5988;BME280;3021;51.000;6.980;2023-04-09T04:11:46;66822.25;;;4.69;100.00
5988;BME280;3021;51.000;6.980;2023-04-09T04:14:12;66822.41;;;4.72;100.00
5988;BME280;3021;51.000;6.980;2023-04-09T04:16:39;66816.66;;;4.66;100.00
5988;BME280;3021;51.000;6.980;2023-04-09T04:19:05;66814.78;;;4.62;100.00
5988;BME280;3021;51.000;6.980;2023-04-09T04:21:30;66812.88;;;4.58;100.00
5988;BME280;3021;51.000;6.980;2023-04-09T04:23:56;66804.00;;;4.55;100.00
5988;BME280;3021;51.000;6.980;2023-04-09T04:26:21;66804.44;;;4.53;100.00
5988;BME280;3021;51.000;6.980;2023-04-09T04:28:46;66796.53;;;4.48;100.00
5988;BME280;3021;51.000;6.980;2023-04-09T04:31:12;66795.06;;;4.42;100.00
5988;BME280;3021;51.000;6.980;2023-04-09T04:33:39;66783.88;;;4.37;100.00
5988;BME280;3021;51.000;6.980;2023-04-09T04:38:30;66767.22;;;4.22;100.00
5988;BME280;3021;51.000;6.980;2023-04-09T04:40:55;66764.34;;;4.20;100.00
5988;BME280;3021;51.000;6.980;2023-04-09T04:43:21;66771.25;;;4.26;100.00
5988;BME280;3021;51.000;6.980;2023-04-09T04:45:46;66770.50;;;4.23;100.00
5988;BME280;3021;51.000;6.980;2023-04-09T04:48:11;66764.34;;;4.20;100.00
5988;BME280;3021;51.000;6.980;2023-04-09T04:50:37;66765.34;;;4.18;100.00
5988;BME280;3021;51.000;6.980;2023-04-09T04:53:04;66763.19;;;4.19;100.00
5988;BME280;3021;51.000;6.980;2023-04-09T04:55:30;66765.34;;;4.18;100.00
5988;BME280;3021;51.000;6.980;2023-04-09T04:57:55;66760.34;;;4.16;100.00
5988;BME280;3021;51.000;6.980;2023-04-09T05:00:20;66754.03;;;4.10;100.00
5988;BME280;3021;51.000;6.980;2023-04-09T05:02:46;66747.69;;;4.05;100.00
5988;BME280;3021;51.000;6.980;2023-04-09T05:05:11;66750.59;;;4.07;100.00
5988;BME280;3021;51.000;6.980;2023-04-09T05:07:37;66761.47;;;4.17;100.00
5988;BME280;3021;51.000;6.980;2023-04-09T05:10:02;66760.19;;;4.13;100.00
5988;BME280;3021;51.000;6.980;2023-04-09T05:12:30;66757.47;;;4.13;100.00
5988;BME280;3021;51.000;6.980;2023-04-09T05:14:56;66762.63;;;4.18;100.00
5988;BME280;3021;51.000;6.980;2023-04-09T05:17:21;66768.78;;;4.21;100.00
5988;BME280;3021;51.000;6.980;2023-04-09T05:19:53;66770.69;;;4.25;100.00
5988;BME280;3021;51.000;6.980;2023-04-09T05:22:19;66778.56;;;4.30;100.00
5988;BME280;3021;51.000;6.980;2023-04-09T05:24:47;66790.06;;;4.40;100.00
5988;BME280;3021;51.000;6.980;2023-04-09T05:27:15;66802.56;;;4.49;100.00
5988;BME280;3021;51.000;6.980;2023-04-09T05:29:43;66818.66;;;4.63;100.00
5988;BME280;3021;51.000;6.980;2023-04-09T05:32:08;66827.00;;;4.76;100.00
5988;BME280;3021;51.000;6.980;2023-04-09T05:34:34;66836.38;;;4.87;100.00
5988;BME280;3021;51.000;6.980;2023-04-09T05:36:59;66857.91;;;5.01;100.00
5988;BME280;3021;51.000;6.980;2023-04-09T05:39:25;66868.41;;;5.13;100.00
5988;BME280;3021;51.000;6.980;2023-04-09T05:41:50;66882.22;;;5.25;100.00
5988;BME280;3021;51.000;6.980;2023-04-09T05:44:16;66894.72;;;5.34;100.00
5988;BME280;3021;51.000;6.980;2023-04-09T05:46:42;66901.63;;;5.40;100.00
5988;BME280;3021;51.000;6.980;2023-04-09T05:49:07;66909.81;;;5.50;100.00
5988;BME280;3021;51.000;6.980;2023-04-09T05:51:32;66923.06;;;5.62;100.00
5988;BME280;3021;51.000;6.980;2023-04-09T05:53:58;66935.72;;;5.73;100.00
5988;BME280;3021;51.000;6.980;2023-04-09T05:56:23;66958.75;;;5.94;100.00
5988;BME280;3021;51.000;6.980;2023-04-09T05:58:52;66979.63;;;6.15;100.00
5988;BME280;3021;51.000;6.980;2023-04-09T06:01:17;67014.59;;;6.44;100.00
5988;BME280;3021;51.000;6.980;2023-04-09T06:03:42;67048.56;;;6.74;100.00
5988;BME280;3021;51.000;6.980;2023-04-09T06:06:08;67083.28;;;7.07;100.00
5988;BME280;3021;51.000;6.980;2023-04-09T06:08:33;67197.41;;;8.09;100.00
5988;BME280;3021;51.000;6.980;2023-04-09T06:11:02;67345.56;;;9.39;100.00
5988;BME280;3021;51.000;6.980;2023-04-09T06:13:27;67445.59;;;10.31;100.00
5988;BME280;3021;51.000;6.980;2023-04-09T06:15:52;67632.25;;;11.95;100.00
5988;BME280;3021;51.000;6.980;2023-04-09T06:18:18;67869.38;;;14.10;100.00
5988;BME280;3021;51.000;6.980;2023-04-09T06:20:43;67971.41;;;15.01;100.00
5988;BME280;3021;51.000;6.980;2023-04-09T06:23:08;68058.59;;;15.81;100.00
5988;BME280;3021;51.000;6.980;2023-04-09T06:25:35;67995.91;;;15.25;100.00
5988;BME280;3021;51.000;6.980;2023-04-09T06:28:01;67869.50;;;14.13;100.00
5988;BME280;3021;51.000;6.980;2023-04-09T06:30:27;67836.78;;;13.79;100.00
5988;BME280;3021;51.000;6.980;2023-04-09T06:32:55;67851.28;;;13.92;100.00
5988;BME280;3021;51.000;6.980;2023-04-09T06:35:20;67814.91;;;13.62;100.00
5988;BME280;3021;51.000;6.980;2023-04-09T06:37:45;67801.56;;;13.50;100.00
5988;BME280;3021;51.000;6.980;2023-04-09T06:40:11;67782.88;;;13.31;100.00
5988;BME280;3021;51.000;6.980;2023-04-09T06:42:36;67801.44;;;13.47;100.00
5988;BME280;3021;51.000;6.980;2023-04-09T06:45:03;67847.91;;;13.91;100.00
5988;BME280;3021;51.000;6.980;2023-04-09T06:47:33;67985.34;;;15.13;100.00
5988;BME280;3021;51.000;6.980;2023-04-09T06:49:58;68078.91;;;15.99;100.00
5988;BME280;3021;51.000;6.980;2023-04-09T06:52:23;68128.69;;;16.40;100.00
5988;BME280;3021;51.000;6.980;2023-04-09T06:54:49;68197.22;;;17.01;100.00
5988;BME280;3021;51.000;6.980;2023-04-09T06:57:14;68111.28;;;16.25;100.00
5988;BME280;3021;51.000;6.980;2023-04-09T06:59:40;67900.66;;;14.38;100.00
5988;BME280;3021;51.000;6.980;2023-04-09T07:02:05;67773.59;;;13.23;100.00
5988;BME280;3021;51.000;6.980;2023-04-09T07:04:31;67764.94;;;13.15;100.00
5988;BME280;3021;51.000;6.980;2023-04-09T07:06:56;67710.50;;;12.67;100.00
5988;BME280;3021;51.000;6.980;2023-04-09T07:09:23;67757.41;;;13.08;100.00
5988;BME280;3021;51.000;6.980;2023-04-09T07:11:48;67717.03;;;12.75;100.00
5988;BME280;3021;51.000;6.980;2023-04-09T07:14:13;67740.16;;;12.95;100.00
5988;BME280;3021;51.000;6.980;2023-04-09T07:16:39;67760.28;;;13.11;100.00
5988;BME280;3021;51.000;6.980;2023-04-09T07:19:05;67749.72;;;12.99;100.00
5988;BME280;3021;51.000;6.980;2023-04-09T07:21:31;67772.47;;;13.22;100.00
5988;BME280;3021;51.000;6.980;2023-04-09T07:23:57;67707.03;;;12.64;100.00
5988;BME280;3021;51.000;6.980;2023-04-09T07:26:22;67664.78;;;12.26;100.00
5988;BME280;3021;51.000;6.980;2023-04-09T07:28:48;67679.38;;;12.41;100.00
5988;BME280;3021;51.000;6.980;2023-04-09T07:31:13;67692.56;;;12.51;100.00
5988;BME280;3021;51.000;6.980;2023-04-09T07:33:38;67748.72;;;13.01;100.00
5988;BME280;3021;51.000;6.980;2023-04-09T07:36:04;67887.34;;;14.26;100.00
5988;BME280;3021;51.000;6.980;2023-04-09T07:38:30;68012.59;;;15.37;100.00
5988;BME280;3021;51.000;6.980;2023-04-09T07:40:59;67954.47;;;14.83;100.00
5988;BME280;3021;51.000;6.980;2023-04-09T07:43:24;67865.31;;;14.07;100.00
5988;BME280;3021;51.000;6.980;2023-04-09T07:45:49;67766.09;;;13.16;100.00
5988;BME280;3021;51.000;6.980;2023-04-09T07:48:18;67780.69;;;13.31;100.00
5988;BME280;3021;51.000;6.980;2023-04-09T07:50:43;67894.13;;;14.30;100.00
5988;BME280;3021;51.000;6.980;2023-04-09T07:53:12;67956.34;;;14.88;100.00
5988;BME280;3021;51.000;6.980;2023-04-09T07:55:37;68091.97;;;16.05;100.00
5988;BME280;3021;51.000;6.980;2023-04-09T07:58:02;68224.53;;;17.25;100.00
5988;BME280;3021;51.000;6.980;2023-04-09T08:00:30;68272.31;;;17.70;100.00
5988;BME280;3021;51.000;6.980;2023-04-09T08:02:55;68178.19;;;16.87;100.00
5988;BME280;3021;51.000;6.980;2023-04-09T08:05:21;68049.75;;;15.70;100.00
5988;BME280;3021;51.000;6.980;2023-04-09T08:07:47;67956.34;;;14.88;100.00
5988;BME280;3021;51.000;6.980;2023-04-09T08:10:12;68021.88;;;15.46;100.00
5988;BME280;3021;51.000;6.980;2023-04-09T08:12:40;68110.25;;;16.27;100.00
5988;BME280;3021;51.000;6.980;2023-04-09T08:15:06;68458.91;;;19.33;100.00
5988;BME280;3021;51.000;6.980;2023-04-09T08:17:31;68229.75;;;17.30;100.00
5988;BME280;3021;51.000;6.980;2023-04-09T08:19:57;68131.00;;;16.42;100.00
5988;BME280;3021;51.000;6.980;2023-04-09T08:22:22;68202.78;;;17.01;100.00
5988;BME280;3021;51.000;6.980;2023-04-09T08:24:51;68358.97;;;18.47;100.00
5988;BME280;3021;51.000;6.980;2023-04-09T08:27:17;68610.31;;;20.67;100.00
5988;BME280;3021;51.000;6.980;2023-04-09T08:29:43;68600.97;;;20.59;100.00
5988;BME280;3021;51.000;6.980;2023-04-09T08:32:08;68578.25;;;20.38;100.00
5988;BME280;3021;51.000;6.980;2023-04-09T08:34:33;68640.63;;;20.94;100.00
5988;BME280;3021;51.000;6.980;2023-04-09T08:36:59;68607.53;;;20.67;100.00
5988;BME280;3021;51.000;6.980;2023-04-09T08:39:24;68773.06;;;22.13;100.00
5988;BME280;3021;51.000;6.980;2023-04-09T08:41:50;69081.22;;;24.82;100.00
5988;BME280;3021;51.000;6.980;2023-04-09T08:44:16;69180.22;;;25.75;92.84
5988;BME280;3021;51.000;6.980;2023-04-09T08:46:42;69063.13;;;24.66;93.97
5988;BME280;3021;51.000;6.980;2023-04-09T08:49:09;69170.66;;;25.61;92.49
5988;BME280;3021;51.000;6.980;2023-04-09T08:51:37;69400.72;;;27.66;90.10
5988;BME280;3021;51.000;6.980;2023-04-09T08:54:03;69564.06;;;29.07;84.62
5988;BME280;3021;51.000;6.980;2023-04-09T08:56:29;69390.09;;;27.54;84.07
5988;BME280;3021;51.000;6.980;2023-04-09T08:58:55;69478.63;;;28.35;85.93
5988;BME280;3021;51.000;6.980;2023-04-09T09:01:25;69571.19;;;29.16;85.66
5988;BME280;3021;51.000;6.980;2023-04-09T09:04:00;69570.63;;;29.16;77.00
5988;BME280;3021;51.000;6.980;2023-04-09T09:06:29;69114.63;;;25.14;79.87
5988;BME280;3021;51.000;6.980;2023-04-09T09:11:32;69056.09;;;24.60;84.69
5988;BME280;3021;51.000;6.980;2023-04-09T09:14:02;69453.91;;;28.10;80.43
5988;BME280;3021;51.000;6.980;2023-04-09T09:16:28;69588.91;;;29.34;75.27
5988;BME280;3021;51.000;6.980;2023-04-09T09:18:59;69498.63;;;28.55;74.90
5988;BME280;3021;51.000;6.980;2023-04-09T09:21:26;69352.13;;;27.23;74.06
5988;BME280;3021;51.000;6.980;2023-04-09T09:23:53;69196.50;;;25.86;75.25
5988;BME280;3021;51.000;6.980;2023-04-09T09:26:20;68876.81;;;23.02;77.05
5988;BME280;3021;51.000;6.980;2023-04-09T09:28:47;68579.31;;;20.37;83.21
5988;BME280;3021;51.000;6.980;2023-04-09T09:31:14;68919.41;;;23.40;82.05
5988;BME280;3021;51.000;6.980;2023-04-09T09:33:40;69542.41;;;28.88;76.96
5988;BME280;3021;51.000;6.980;2023-04-09T09:36:06;69504.41;;;28.57;71.47
5988;BME280;3021;51.000;6.980;2023-04-09T09:38:34;70061.34;;;33.46;65.26
5988;BME280;3021;51.000;6.980;2023-04-09T09:41:18;70468.59;;;37.05;59.13
5988;BME280;3021;51.000;6.980;2023-04-09T09:43:44;70637.72;;;38.53;56.62
5988;BME280;3021;51.000;6.980;2023-04-09T09:46:10;70552.88;;;37.79;50.19
5988;BME280;3021;51.000;6.980;2023-04-09T09:48:36;70361.75;;;36.04;51.07
5988;BME280;3021;51.000;6.980;2023-04-09T09:51:02;70074.25;;;33.57;49.61
5988;BME280;3021;51.000;6.980;2023-04-09T09:53:34;69320.31;;;26.90;56.74
5988;BME280;3021;51.000;6.980;2023-04-09T09:56:01;69518.84;;;28.65;57.15
5988;BME280;3021;51.000;6.980;2023-04-09T09:58:35;69687.31;;;30.18;57.91
5988;BME280;3021;51.000;6.980;2023-04-09T10:01:07;69950.06;;;32.44;57.69
5988;BME280;3021;51.000;6.980;2023-04-09T10:03:33;69883.91;;;31.91;53.28
5988;BME280;3021;51.000;6.980;2023-04-09T10:06:02;70225.41;;;34.90;53.10
5988;BME280;3021;51.000;6.980;2023-04-09T10:08:29;70250.09;;;35.11;50.14
5988;BME280;3021;51.000;6.980;2023-04-09T10:10:55;70226.00;;;34.90;53.38
5988;BME280;3021;51.000;6.980;2023-04-09T10:13:28;70074.25;;;33.57;53.04
5988;BME280;3021;51.000;6.980;2023-04-09T10:15:57;69771.69;;;30.90;51.80
5988;BME280;3021;51.000;6.980;2023-04-09T10:18:23;69849.19;;;31.58;52.45
5988;BME280;3021;51.000;6.980;2023-04-09T10:20:53;69862.19;;;31.72;53.10
5988;BME280;3021;51.000;6.980;2023-04-09T10:23:30;69938.44;;;32.36;52.37
5988;BME280;3021;51.000;6.980;2023-04-09T10:25:59;69596.44;;;29.38;52.73
5988;BME280;3021;51.000;6.980;2023-04-09T10:28:24;69043.13;;;24.46;59.19
5988;BME280;3021;51.000;6.980;2023-04-09T10:30:52;69347.22;;;27.14;60.36
5988;BME280;3021;51.000;6.980;2023-04-09T10:33:21;69431.53;;;27.88;57.00
5988;BME280;3021;51.000;6.980;2023-04-09T10:35:51;69460.97;;;28.17;59.74
5988;BME280;3021;51.000;6.980;2023-04-09T10:38:16;69452.03;;;28.06;58.79
5988;BME280;3021;51.000;6.980;2023-04-09T10:40:49;69038.31;;;24.40;62.27
5988;BME280;3021;51.000;6.980;2023-04-09T10:43:17;68852.19;;;22.78;67.39
5988;BME280;3021;51.000;6.980;2023-04-09T10:45:44;68997.44;;;24.04;72.77
5988;BME280;3021;51.000;6.980;2023-04-09T10:48:12;69373.00;;;27.37;65.58
5988;BME280;3021;51.000;6.980;2023-04-09T10:50:41;69348.50;;;27.18;63.69
5988;BME280;3021;51.000;6.980;2023-04-09T10:53:20;69541.22;;;28.87;60.86
5988;BME280;3021;51.000;6.980;2023-04-09T10:55:51;69405.41;;;27.70;61.50
5988;BME280;3021;51.000;6.980;2023-04-09T10:58:16;69520.13;;;28.69;62.05
5988;BME280;3021;51.000;6.980;2023-04-09T11:00:47;69078.19;;;24.77;63.93
5988;BME280;3021;51.000;6.980;2023-04-09T11:03:23;68859.75;;;22.85;70.02
5988;BME280;3021;51.000;6.980;2023-04-09T11:08:19;68757.78;;;21.97;75.97
5988;BME280;3021;51.000;6.980;2023-04-09T11:10:49;68736.78;;;21.79;77.60
5988;BME280;3021;51.000;6.980;2023-04-09T11:13:16;68654.94;;;21.01;75.44
5988;BME280;3021;51.000;6.980;2023-04-09T11:15:43;68605.50;;;20.60;79.96
5988;BME280;3021;51.000;6.980;2023-04-09T11:18:22;68565.91;;;20.25;80.03
5988;BME280;3021;51.000;6.980;2023-04-09T11:20:48;68578.03;;;20.33;84.36
5988;BME280;3021;51.000;6.980;2023-04-09T11:23:14;68487.16;;;19.53;88.43
5988;BME280;3021;51.000;6.980;2023-04-09T11:25:40;68417.34;;;18.91;91.51
5988;BME280;3021;51.000;6.980;2023-04-09T11:28:06;68339.94;;;18.23;91.97
5988;BME280;3021;51.000;6.980;2023-04-09T11:30:35;68288.34;;;17.79;97.82
5988;BME280;3021;51.000;6.980;2023-04-09T11:33:01;68274.84;;;17.65;97.38
5988;BME280;3021;51.000;6.980;2023-04-09T11:35:27;68255.06;;;17.48;95.55
5988;BME280;3021;51.000;6.980;2023-04-09T11:37:52;68244.59;;;17.38;99.30
5988;BME280;3021;51.000;6.980;2023-04-09T11:40:23;68274.38;;;17.67;99.31
5988;BME280;3021;51.000;6.980;2023-04-09T11:42:50;68283.53;;;17.73;97.91
5988;BME280;3021;51.000;6.980;2023-04-09T11:45:17;68263.22;;;17.55;98.63
5988;BME280;3021;51.000;6.980;2023-04-09T11:47:43;68292.28;;;17.81;99.50
5988;BME280;3021;51.000;6.980;2023-04-09T11:50:10;68342.28;;;18.25;99.45
5988;BME280;3021;51.000;6.980;2023-04-09T11:52:36;68349.41;;;18.34;95.41
5988;BME280;3021;51.000;6.980;2023-04-09T11:55:06;68390.09;;;18.70;96.59
5988;BME280;3021;51.000;6.980;2023-04-09T11:57:52;68408.00;;;18.83;92.40
5988;BME280;3021;51.000;6.980;2023-04-09T12:00:18;68358.69;;;18.42;94.14
5988;BME280;3021;51.000;6.980;2023-04-09T12:02:47;68338.34;;;18.24;95.68
5988;BME280;3021;51.000;6.980;2023-04-09T12:05:23;68282.97;;;17.72;95.85
5988;BME280;3021;51.000;6.980;2023-04-09T12:07:50;68266.09;;;17.57;99.54
5988;BME280;3021;51.000;6.980;2023-04-09T12:10:16;68233.69;;;17.31;99.27
5988;BME280;3021;51.000;6.980;2023-04-09T12:12:48;68240.66;;;17.37;98.50
5988;BME280;3021;51.000;6.980;2023-04-09T12:15:20;68215.09;;;17.15;100.00
5988;BME280;3021;51.000;6.980;2023-04-09T12:17:56;68188.81;;;16.89;100.00
5988;BME280;3021;51.000;6.980;2023-04-09T12:20:33;68236.94;;;17.29;100.00
5988;BME280;3021;51.000;6.980;2023-04-09T12:23:00;68282.50;;;17.74;100.00
5988;BME280;3021;51.000;6.980;2023-04-09T12:25:28;68274.97;;;17.68;100.00
5988;BME280;3021;51.000;6.980;2023-04-09T12:27:56;68249.84;;;17.43;100.00
5988;BME280;3021;51.000;6.980;2023-04-09T12:30:22;68245.31;;;17.41;100.00
5988;BME280;3021;51.000;6.980;2023-04-09T12:32:49;68267.84;;;17.59;100.00
5988;BME280;3021;51.000;6.980;2023-04-09T12:35:14;68280.78;;;17.73;100.00
5988;BME280;3021;51.000;6.980;2023-04-09T12:37:41;68234.16;;;17.29;100.00
5988;BME280;3021;51.000;6.980;2023-04-09T12:40:06;68231.97;;;17.30;100.00
5988;BME280;3021;51.000;6.980;2023-04-09T12:42:32;68255.78;;;17.51;100.00
5988;BME280;3021;51.000;6.980;2023-04-09T12:44:57;68238.94;;;17.36;100.00
5988;BME280;3021;51.000;6.980;2023-04-09T12:47:23;68221.50;;;17.20;100.00
5988;BME280;3021;51.000;6.980;2023-04-09T12:49:48;68214.38;;;17.12;100.00
5988;BME280;3021;51.000;6.980;2023-04-09T12:52:14;68216.28;;;17.16;100.00
5988;BME280;3021;51.000;6.980;2023-04-09T12:54:40;68227.75;;;17.23;100.00
5988;BME280;3021;51.000;6.980;2023-04-09T12:57:05;68254.75;;;17.52;100.00
5988;BME280;3021;51.000;6.980;2023-04-09T12:59:31;68267.84;;;17.59;100.00
5988;BME280;3021;51.000;6.980;2023-04-09T13:01:56;68259.72;;;17.52;100.00
5988;BME280;3021;51.000;6.980;2023-04-09T13:04:22;68273.66;;;17.64;100.00
5988;BME280;3021;51.000;6.980;2023-04-09T13:06:47;68306.94;;;17.96;100.00
5988;BME280;3021;51.000;6.980;2023-04-09T13:09:13;68372.53;;;18.52;100.00
5988;BME280;3021;51.000;6.980;2023-04-09T13:11:38;68316.84;;;18.05;100.00
5988;BME280;3021;51.000;6.980;2023-04-09T13:14:04;68282.97;;;17.72;100.00
5988;BME280;3021;51.000;6.980;2023-04-09T13:16:30;68302.16;;;17.89;100.00
5988;BME280;3021;51.000;6.980;2023-04-09T13:18:55;68244.16;;;17.40;100.00
5988;BME280;3021;51.000;6.980;2023-04-09T13:21:21;68225.44;;;17.21;100.00
5988;BME280;3021;51.000;6.980;2023-04-09T13:23:46;68282.97;;;17.72;100.00
5988;BME280;3021;51.000;6.980;2023-04-09T13:26:11;68303.03;;;17.95;100.00
5988;BME280;3021;51.000;6.980;2023-04-09T13:28:37;68334.28;;;18.20;100.00
5988;BME280;3021;51.000;6.980;2023-04-09T13:31:02;68327.88;;;18.14;100.00
5988;BME280;3021;51.000;6.980;2023-04-09T13:33:27;68333.41;;;18.14;100.00